Time;durP1;ratioP1;P1;durP2;ratioP2;P2;SDS_P1;SDS_P2;PMS_P1;PMS_P2;Temp;Humidity;BMP_temperature;BMP_pressure;BME280_temperature;BME280_humidity;BME280_pressure;Samples;Min_cycle;Max_cycle;Signal;HPM_P1;HPM_P2
2022/09/22 00:01:34;;;;;;;22.00;15.90;;;;;;;7.98;84.46;99317.13;88355;1276;22586;-75
2022/09/22 00:03:47;;;;;;;26.00;17.30;;;;;;;7.94;84.28;99314.47;88528;1276;22792;-74
2022/09/22 00:05:49;;;;;;;32.90;16.50;;;;;;;7.92;84.43;99312.42;88276;1276;22733;-74
2022/09/22 00:07:52;;;;;;;23.20;16.20;;;;;;;7.93;84.44;99314.31;88217;1281;22585;-74
2022/09/22 00:09:54;;;;;;;27.60;16.00;;;;;;;7.92;84.58;99316.80;88042;1279;22738;-74
2022/09/22 00:11:55;;;;;;;23.00;16.70;;;;;;;7.91;84.01;99316.86;88347;1276;22720;-75
2022/09/22 00:14:00;;;;;;;27.40;15.00;;;;;;;7.89;84.54;99323.04;88350;1276;22855;-74
2022/09/22 00:16:07;;;;;;;29.30;16.30;;;;;;;7.88;84.61;99322.02;88216;1278;23481;-74
2022/09/22 00:18:09;;;;;;;30.10;16.50;;;;;;;7.87;84.42;99322.74;88836;1278;22893;-74
2022/09/22 00:20:12;;;;;;;25.20;15.90;;;;;;;7.86;84.55;99319.83;88079;1277;22644;-74
2022/09/22 00:22:14;;;;;;;25.30;15.20;;;;;;;7.84;84.60;99319.88;88447;1278;24569;-75
2022/09/22 00:24:17;;;;;;;26.90;14.90;;;;;;;7.81;84.22;99317.15;88285;1277;24263;-75
2022/09/22 00:26:22;;;;;;;24.30;16.10;;;;;;;7.79;84.48;99320.89;88385;1278;23109;-75
2022/09/22 00:28:25;;;;;;;23.00;15.10;;;;;;;7.77;84.56;99315.18;88439;1276;25402;-76
2022/09/22 00:30:26;;;;;;;23.70;14.60;;;;;;;7.75;84.29;99316.98;88204;1276;22608;-75
2022/09/22 00:32:29;;;;;;;21.80;15.00;;;;;;;7.74;84.56;99320.01;88512;1276;22670;-75
2022/09/22 00:34:30;;;;;;;24.30;15.40;;;;;;;7.71;84.58;99319.02;88433;1275;22561;-74
2022/09/22 00:36:33;;;;;;;24.50;14.10;;;;;;;7.70;84.58;99317.65;88321;1277;27394;-75
2022/09/22 00:38:37;;;;;;;31.90;14.80;;;;;;;7.68;84.52;99316.85;88306;1275;25650;-74
2022/09/22 00:40:38;;;;;;;21.90;14.30;;;;;;;7.68;84.73;99323.16;88260;1278;22774;-75
2022/09/22 00:42:42;;;;;;;26.30;14.10;;;;;;;7.66;84.77;99317.10;88308;1278;22829;-76
2022/09/22 00:44:44;;;;;;;19.30;14.60;;;;;;;7.64;84.70;99322.57;88431;1276;24260;-75
2022/09/22 00:46:58;;;;;;;22.20;14.10;;;;;;;7.63;84.73;99322.44;88268;1277;24529;-75
2022/09/22 00:49:04;;;;;;;19.00;13.20;;;;;;;7.63;84.49;99327.67;88183;1278;22730;-75
2022/09/22 00:51:08;;;;;;;28.70;14.00;;;;;;;7.61;84.39;99325.80;88194;1277;22582;-74
2022/09/22 00:53:15;;;;;;;23.00;14.00;;;;;;;7.60;84.70;99325.34;88528;1276;24681;-74
2022/09/22 00:55:43;;;;;;;24.60;14.60;;;;;;;7.58;84.57;99323.63;88309;1277;22605;-75
2022/09/22 00:57:47;;;;;;;24.60;15.70;;;;;;;7.55;84.87;99326.16;88378;1276;25424;-74
2022/09/22 00:59:51;;;;;;;19.40;14.90;;;;;;;7.54;84.74;99322.88;88642;1278;23140;-74
2022/09/22 01:01:53;;;;;;;28.50;14.80;;;;;;;7.53;84.54;99324.84;88130;1276;23482;-75
2022/09/22 01:03:55;;;;;;;23.40;15.10;;;;;;;7.50;84.59;99320.73;88298;1278;22750;-74
2022/09/22 01:06:00;;;;;;;19.70;14.40;;;;;;;7.49;84.64;99323.91;88289;1277;22683;-74
2022/09/22 01:08:02;;;;;;;23.20;15.10;;;;;;;7.47;84.61;99322.40;88730;1278;22795;-75
2022/09/22 01:10:04;;;;;;;17.30;13.90;;;;;;;7.44;84.53;99325.47;88522;1276;25844;-75
2022/09/22 01:12:06;;;;;;;30.90;14.90;;;;;;;7.40;84.49;99328.36;88213;1276;22628;-73
2022/09/22 01:14:28;;;;;;;21.80;14.50;;;;;;;7.39;84.67;99325.95;88259;1278;22800;-74
2022/09/22 01:16:44;;;;;;;22.80;13.70;;;;;;;7.36;84.74;99328.83;88447;1276;24693;-74
2022/09/22 01:19:27;;;;;;;20.80;15.00;;;;;;;7.33;84.54;99333.96;88375;1276;25476;-74
2022/09/22 01:21:41;;;;;;;24.20;15.00;;;;;;;7.30;84.65;99337.90;88456;1276;22686;-74
2022/09/22 01:24:44;;;;;;;21.90;14.80;;;;;;;7.25;84.50;99342.26;88495;1276;22729;-74
2022/09/22 01:27:08;;;;;;;20.30;15.40;;;;;;;7.18;84.58;99342.48;87828;1283;22651;-75
2022/09/22 01:29:30;;;;;;;27.10;16.20;;;;;;;7.12;84.47;99345.44;87982;1282;24525;-75
2022/09/22 01:31:45;;;;;;;30.90;18.50;;;;;;;7.07;84.62;99343.46;87972;1281;22568;-74
2022/09/22 01:34:26;;;;;;;28.60;18.80;;;;;;;7.08;84.68;99344.15;87886;1281;22746;-74
2022/09/22 01:36:54;;;;;;;27.00;18.60;;;;;;;7.09;84.95;99343.08;88105;1281;26701;-74
2022/09/22 01:39:21;;;;;;;29.50;19.30;;;;;;;7.08;84.82;99338.02;88090;1281;23126;-74
2022/09/22 01:41:36;;;;;;;39.30;20.30;;;;;;;7.10;84.64;99338.32;88144;1282;22725;-74
2022/09/22 01:43:45;;;;;;;29.60;19.50;;;;;;;7.12;84.99;99334.95;88067;1281;22727;-75
2022/09/22 01:45:47;;;;;;;45.30;21.50;;;;;;;7.14;85.23;99332.78;88064;1281;27184;-75
2022/09/22 01:48:05;;;;;;;36.00;21.10;;;;;;;7.17;84.80;99330.44;87834;1282;22773;-74
2022/09/22 01:50:15;;;;;;;31.30;20.20;;;;;;;7.19;85.27;99328.30;88091;1281;23424;-75
2022/09/22 01:52:30;;;;;;;32.50;19.50;;;;;;;7.20;85.01;99325.64;87912;1284;22743;-75
2022/09/22 01:54:42;;;;;;;29.50;20.60;;;;;;;7.21;84.86;99323.50;87844;1282;22586;-75
2022/09/22 01:56:50;;;;;;;33.60;21.60;;;;;;;7.21;85.04;99321.74;88027;1282;24722;-75
2022/09/22 01:58:57;;;;;;;34.40;21.50;;;;;;;7.22;85.13;99316.31;87953;1281;22720;-74
2022/09/22 02:01:07;;;;;;;32.10;21.20;;;;;;;7.22;85.24;99317.36;88024;1278;27778;-72
2022/09/22 02:03:13;;;;;;;38.00;20.90;;;;;;;7.23;85.26;99319.06;88226;1277;25472;-75
2022/09/22 02:05:22;;;;;;;31.10;19.70;;;;;;;7.22;85.05;99315.26;88448;1274;25319;-74
2022/09/22 02:07:34;;;;;;;35.80;20.50;;;;;;;7.21;85.06;99315.60;88326;1276;22697;-74
2022/09/22 02:09:40;;;;;;;29.90;19.90;;;;;;;7.20;85.09;99313.55;88221;1278;23112;-72
2022/09/22 02:11:42;;;;;;;38.40;21.90;;;;;;;7.20;85.01;99314.27;88585;1275;25684;-75
2022/09/22 02:13:45;;;;;;;34.90;21.90;;;;;;;7.19;85.05;99317.09;88243;1277;25392;-74
2022/09/22 02:15:59;;;;;;;35.40;20.70;;;;;;;7.18;85.07;99313.27;88537;1276;27872;-74
2022/09/22 02:18:08;;;;;;;31.60;20.40;;;;;;;7.18;85.20;99316.42;88385;1276;22668;-75
2022/09/22 02:20:11;;;;;;;31.20;19.50;;;;;;;7.17;85.32;99318.01;88378;1281;25661;-76
2022/09/22 02:22:13;;;;;;;28.70;20.00;;;;;;;7.17;85.13;99316.11;88191;1277;25472;-74
2022/09/22 02:24:45;;;;;;;30.70;20.40;;;;;;;7.15;85.09;99318.23;88431;1276;22571;-73
2022/09/22 02:26:47;;;;;;;;;;;;;;;7.14;85.21;99318.29;88280;1276;22566;-74
2022/09/22 02:29:01;;;;;;;29.00;18.60;;;;;;;7.12;85.14;99320.27;88322;1278;22697;-74
2022/09/22 02:31:04;;;;;;;34.40;21.60;;;;;;;7.08;85.26;99319.14;88313;1278;22927;-75
2022/09/22 02:33:07;;;;;;;34.70;21.20;;;;;;;7.05;85.10;99318.70;88500;1274;25534;-75
2022/09/22 02:35:09;;;;;;;32.00;21.10;;;;;;;7.03;84.91;99318.23;88179;1276;25515;-76
2022/09/22 02:37:50;;;;;;;33.20;20.80;;;;;;;7.02;85.22;99315.15;88213;1277;25218;-74
2022/09/22 02:40:01;;;;;;;31.50;21.30;;;;;;;6.98;85.01;99313.66;88369;1276;22720;-74
2022/09/22 02:42:24;;;;;;;29.10;19.30;;;;;;;6.95;85.05;99316.89;88401;1275;24174;-74
2022/09/22 02:44:41;;;;;;;29.60;19.20;;;;;;;6.92;85.04;99314.52;88475;1276;22602;-74
2022/09/22 02:47:08;;;;;;;34.80;19.90;;;;;;;6.88;85.07;99316.02;88471;1278;22571;-74
2022/09/22 02:49:17;;;;;;;35.50;21.50;;;;;;;6.86;85.05;99316.95;88288;1278;22726;-74
2022/09/22 02:51:20;;;;;;;31.20;20.50;;;;;;;6.85;85.19;99311.41;88778;1276;23207;-75
2022/09/22 02:53:22;;;;;;;31.00;18.50;;;;;;;6.84;85.25;99314.94;88278;1277;23367;-74
2022/09/22 02:55:23;;;;;;;27.00;19.00;;;;;;;6.81;84.87;99315.18;88307;1278;22636;-75
2022/09/22 02:57:25;;;;;;;28.00;18.30;;;;;;;6.77;84.85;99317.02;88259;1276;22610;-74
2022/09/22 02:59:27;;;;;;;32.20;19.50;;;;;;;6.75;84.97;99314.83;88515;1276;27575;-75
2022/09/22 03:01:29;;;;;;;29.10;19.60;;;;;;;6.73;84.94;99315.77;88240;1276;24789;-74
2022/09/22 03:03:31;;;;;;;31.00;19.60;;;;;;;6.70;84.90;99316.88;88188;1278;22731;-74
2022/09/22 03:05:33;;;;;;;37.40;21.20;;;;;;;6.68;85.00;99317.45;88193;1279;23462;-74
2022/09/22 03:07:35;;;;;;;33.80;20.70;;;;;;;6.67;85.05;99318.00;88148;1279;22810;-75
2022/09/22 03:09:36;;;;;;;32.80;20.60;;;;;;;6.65;85.05;99322.06;88217;1279;23108;-74
2022/09/22 03:11:38;;;;;;;35.30;20.10;;;;;;;6.62;84.99;99319.17;88291;1276;22570;-74
2022/09/22 03:13:39;;;;;;;24.30;17.10;;;;;;;6.63;85.20;99325.80;88254;1277;22762;-74
2022/09/22 03:15:42;;;;;;;31.60;20.40;;;;;;;6.61;85.02;99323.39;88248;1279;22594;-74
2022/09/22 03:17:46;;;;;;;30.00;20.40;;;;;;;6.61;85.19;99324.24;88352;1278;22782;-74
2022/09/22 03:19:48;;;;;;;39.40;21.10;;;;;;;6.63;85.25;99324.05;88421;1276;22572;-74
2022/09/22 03:21:50;;;;;;;30.00;19.90;;;;;;;6.63;85.09;99320.04;88098;1277;23429;-74
2022/09/22 03:23:52;;;;;;;34.20;20.60;;;;;;;6.64;85.24;99320.88;88356;1276;22736;-74
2022/09/22 03:25:54;;;;;;;35.50;20.20;;;;;;;6.64;85.26;99324.19;88180;1277;24367;-74
2022/09/22 03:27:55;;;;;;;32.70;20.20;;;;;;;6.65;85.32;99324.16;88245;1278;23451;-75
2022/09/22 03:29:57;;;;;;;37.20;21.20;;;;;;;6.66;85.34;99325.36;88151;1279;22774;-75
2022/09/22 03:31:59;;;;;;;32.50;21.20;;;;;;;6.70;85.21;99323.52;88199;1276;22638;-75
2022/09/22 03:34:01;;;;;;;30.20;21.80;;;;;;;6.71;85.33;99324.71;88252;1278;26413;-74
2022/09/22 03:36:04;;;;;;;38.80;23.10;;;;;;;6.74;85.38;99321.66;88393;1276;22557;-73
2022/09/22 03:38:06;;;;;;;35.70;22.40;;;;;;;6.76;85.39;99323.34;88175;1279;23399;-72
2022/09/22 03:40:08;;;;;;;37.00;22.10;;;;;;;6.79;85.48;99325.35;88252;1276;22755;-74
2022/09/22 03:42:09;;;;;;;30.70;21.10;;;;;;;6.82;85.28;99329.11;88199;1279;22637;-74
2022/09/22 03:44:11;;;;;;;35.50;23.20;;;;;;;6.86;85.35;99328.50;88311;1276;23579;-73
2022/09/22 03:46:13;;;;;;;42.10;22.90;;;;;;;6.88;85.46;99329.48;88181;1278;22890;-74
2022/09/22 03:48:15;;;;;;;35.10;22.80;;;;;;;6.91;85.57;99330.11;88202;1279;22732;-74
2022/09/22 03:50:17;;;;;;;41.90;23.50;;;;;;;6.95;85.37;99332.43;88217;1276;25332;-74
2022/09/22 03:52:19;;;;;;;36.00;23.00;;;;;;;6.99;85.54;99332.15;88283;1277;22564;-75
2022/09/22 03:54:21;;;;;;;48.70;22.90;;;;;;;7.03;85.54;99332.56;88129;1279;22622;-75
2022/09/22 03:56:23;;;;;;;44.70;24.40;;;;;;;7.06;85.39;99334.76;88261;1278;22557;-75
2022/09/22 03:58:24;;;;;;;39.10;22.90;;;;;;;7.09;85.55;99332.59;88124;1279;22597;-74
2022/09/22 04:00:27;;;;;;;32.80;21.90;;;;;;;7.12;85.41;99333.02;88189;1279;26255;-74
2022/09/22 04:02:29;;;;;;;36.50;22.40;;;;;;;7.15;85.63;99329.95;88262;1276;24386;-74
2022/09/22 04:04:31;;;;;;;39.90;25.30;;;;;;;7.18;85.70;99329.52;88263;1276;22722;-74
2022/09/22 04:06:33;;;;;;;35.00;23.40;;;;;;;7.21;85.50;99329.43;88282;1276;24252;-74
2022/09/22 04:08:36;;;;;;;34.70;22.20;;;;;;;7.24;85.52;99330.59;88113;1278;22571;-74
2022/09/22 04:10:38;;;;;;;35.70;21.40;;;;;;;7.27;85.68;99333.46;88397;1276;22674;-74
2022/09/22 04:12:40;;;;;;;35.60;21.40;;;;;;;7.28;85.73;99333.07;88259;1279;22560;-74
2022/09/22 04:14:42;;;;;;;36.00;21.90;;;;;;;7.30;85.37;99332.50;88319;1276;23221;-74
2022/09/22 04:16:44;;;;;;;35.60;19.70;;;;;;;7.32;85.38;99333.83;88169;1281;22892;-75
2022/09/22 04:18:46;;;;;;;34.50;20.70;;;;;;;7.35;85.82;99333.94;88176;1276;22603;-75
2022/09/22 04:20:48;;;;;;;31.70;22.00;;;;;;;7.37;85.79;99330.05;88250;1279;25741;-75
2022/09/22 04:22:49;;;;;;;29.20;19.50;;;;;;;7.38;85.52;99328.59;88282;1277;22559;-74
2022/09/22 04:24:51;;;;;;;29.60;19.00;;;;;;;7.40;85.70;99330.64;88238;1277;22661;-74
2022/09/22 04:26:53;;;;;;;29.80;19.60;;;;;;;7.43;85.48;99332.31;88085;1277;22654;-74
2022/09/22 04:28:54;;;;;;;33.70;19.20;;;;;;;7.45;85.65;99332.59;88217;1279;29507;-74
2022/09/22 04:30:57;;;;;;;35.00;20.10;;;;;;;7.46;85.83;99334.30;88200;1279;24150;-75
2022/09/22 04:33:00;;;;;;;33.00;20.30;;;;;;;7.47;85.73;99336.89;88635;1278;22573;-74
2022/09/22 04:35:01;;;;;;;27.90;16.90;;;;;;;7.47;85.66;99333.90;88223;1276;22585;-75
2022/09/22 04:37:04;;;;;;;25.30;16.40;;;;;;;7.48;85.57;99336.88;88091;1279;22667;-75
2022/09/22 04:39:05;;;;;;;24.20;16.40;;;;;;;7.48;85.76;99335.63;88223;1279;22575;-74
2022/09/22 04:41:07;;;;;;;29.50;17.90;;;;;;;7.48;85.85;99336.52;88196;1276;25811;-74
2022/09/22 04:43:09;;;;;;;25.20;16.40;;;;;;;7.48;85.83;99336.86;88237;1279;22734;-75
2022/09/22 04:45:12;;;;;;;27.80;17.20;;;;;;;7.49;86.04;99335.61;88241;1276;22539;-75
2022/09/22 04:47:14;;;;;;;30.90;16.70;;;;;;;7.52;85.85;99341.31;88036;1279;24307;-74
2022/09/22 04:49:17;;;;;;;31.40;17.80;;;;;;;7.54;85.84;99338.62;88274;1279;24315;-74
2022/09/22 04:51:19;;;;;;;28.60;17.70;;;;;;;7.55;85.74;99341.21;88213;1279;22608;-75
2022/09/22 04:53:20;;;;;;;29.00;17.60;;;;;;;7.57;85.56;99342.36;88289;1278;22515;-76
2022/09/22 04:55:23;;;;;;;35.80;17.90;;;;;;;7.58;85.95;99341.98;88147;1277;24323;-75
2022/09/22 04:57:26;;;;;;;24.80;16.80;;;;;;;7.60;85.77;99343.70;88261;1277;25401;-75
2022/09/22 04:59:28;;;;;;;26.60;17.50;;;;;;;7.61;85.82;99345.04;88438;1276;22777;-74
2022/09/22 05:01:30;;;;;;;26.60;17.70;;;;;;;7.63;85.88;99344.81;88469;1276;27101;-75
2022/09/22 05:03:32;;;;;;;28.70;17.20;;;;;;;7.64;85.64;99343.56;88410;1276;22858;-74
2022/09/22 05:05:34;;;;;;;23.70;16.90;;;;;;;7.65;85.82;99342.81;88384;1276;22626;-75
2022/09/22 05:07:40;;;;;;;24.20;16.60;;;;;;;7.66;85.70;99340.00;88400;1276;24225;-75
2022/09/22 05:09:42;;;;;;;28.20;16.20;;;;;;;7.67;85.78;99338.06;88332;1276;22557;-75
2022/09/22 05:11:44;;;;;;;25.60;16.20;;;;;;;7.66;86.02;99337.88;88325;1276;22571;-75
2022/09/22 05:13:45;;;;;;;27.20;16.60;;;;;;;7.66;85.41;99339.83;88307;1279;22573;-76
2022/09/22 05:15:47;;;;;;;27.10;17.40;;;;;;;7.65;85.96;99342.13;88327;1276;22716;-75
2022/09/22 05:17:51;;;;;;;23.60;15.00;;;;;;;7.66;85.69;99342.63;88284;1276;24361;-75
2022/09/22 05:19:54;;;;;;;24.30;15.90;;;;;;;7.65;85.74;99342.66;88639;1278;22622;-76
2022/09/22 05:21:56;;;;;;;22.50;15.30;;;;;;;7.67;85.87;99351.51;88510;1276;23373;-76
2022/09/22 05:23:59;;;;;;;19.70;14.30;;;;;;;7.68;85.65;99346.95;88235;1277;25298;-74
2022/09/22 05:26:01;;;;;;;23.10;13.60;;;;;;;7.67;85.73;99343.83;88396;1277;22874;-75
2022/09/22 05:28:03;;;;;;;22.90;13.10;;;;;;;7.67;85.72;99349.92;88409;1276;22591;-74
2022/09/22 05:30:06;;;;;;;19.30;13.00;;;;;;;7.69;86.08;99346.56;88355;1277;23764;-75
2022/09/22 05:32:08;;;;;;;17.60;12.00;;;;;;;7.70;85.96;99344.77;88647;1276;25467;-75
2022/09/22 05:34:10;;;;;;;23.10;12.40;;;;;;;7.72;86.03;99347.52;88399;1275;23090;-75
2022/09/22 05:36:12;;;;;;;27.20;12.70;;;;;;;7.72;85.84;99348.76;88259;1278;25328;-75
2022/09/22 05:38:14;;;;;;;15.40;11.50;;;;;;;7.74;85.92;99349.04;88378;1279;22577;-75
2022/09/22 05:40:16;;;;;;;27.60;11.50;;;;;;;7.74;85.81;99350.59;88390;1279;22683;-75
2022/09/22 05:42:19;;;;;;;17.20;11.10;;;;;;;7.75;85.72;99351.09;88398;1276;24243;-75
2022/09/22 05:44:20;;;;;;;14.60;10.20;;;;;;;7.76;85.78;99349.33;88166;1277;22589;-76
2022/09/22 05:46:22;;;;;;;15.00;11.70;;;;;;;7.77;85.82;99355.59;88364;1277;24385;-75
2022/09/22 05:48:24;;;;;;;14.90;10.80;;;;;;;7.79;85.97;99356.41;88468;1276;22547;-75
2022/09/22 05:50:26;;;;;;;13.60;11.10;;;;;;;7.80;85.89;99355.86;88280;1279;25980;-76
2022/09/22 05:52:28;;;;;;;14.70;11.20;;;;;;;7.82;85.99;99354.39;88196;1279;22728;-76
2022/09/22 05:54:30;;;;;;;18.50;11.30;;;;;;;7.83;85.73;99355.23;88452;1276;23235;-75
2022/09/22 05:56:32;;;;;;;17.50;11.80;;;;;;;7.85;85.72;99350.64;88589;1276;22631;-75
2022/09/22 05:58:34;;;;;;;16.50;11.20;;;;;;;7.87;85.86;99355.63;88373;1279;22751;-75
2022/09/22 06:00:35;;;;;;;16.60;11.80;;;;;;;7.89;85.81;99358.36;88436;1276;22613;-74
2022/09/22 06:02:38;;;;;;;15.30;11.70;;;;;;;7.92;85.82;99360.55;88202;1279;22565;-76
2022/09/22 06:04:39;;;;;;;15.50;11.70;;;;;;;7.94;85.80;99360.66;88310;1277;24389;-75
2022/09/22 06:06:41;;;;;;;16.80;11.10;;;;;;;7.96;86.02;99360.27;88317;1279;23164;-75
2022/09/22 06:08:43;;;;;;;18.50;11.90;;;;;;;7.97;86.00;99358.98;88508;1276;22578;-76
2022/09/22 06:10:47;;;;;;;15.40;12.40;;;;;;;8.00;85.98;99361.88;88236;1279;22559;-75
2022/09/22 06:12:57;;;;;;;18.10;11.30;;;;;;;8.04;85.85;99363.33;88131;1279;24264;-75
2022/09/22 06:14:59;;;;;;;17.40;11.50;;;;;;;8.09;85.80;99367.39;88574;1278;22808;-76
2022/09/22 06:17:00;;;;;;;17.70;11.00;;;;;;;8.13;85.89;99366.02;88394;1278;23916;-75
2022/09/22 06:19:02;;;;;;;17.10;10.90;;;;;;;8.16;86.13;99369.77;88493;1276;23079;-74
2022/09/22 06:21:06;;;;;;;14.50;10.90;;;;;;;8.17;85.65;99370.61;88101;1281;22646;-76
2022/09/22 06:23:12;;;;;;;20.60;12.10;;;;;;;8.20;85.60;99366.34;88320;1276;22603;-75
2022/09/22 06:25:14;;;;;;;18.00;9.70;;;;;;;8.22;85.77;99370.99;88835;1279;22600;-76
2022/09/22 06:27:17;;;;;;;24.40;11.30;;;;;;;8.23;85.61;99376.58;88275;1279;23514;-75
2022/09/22 06:29:18;;;;;;;21.70;10.60;;;;;;;8.23;85.60;99376.73;88478;1276;22817;-75
2022/09/22 06:31:20;;;;;;;25.70;10.90;;;;;;;8.23;85.45;99377.60;88151;1279;22581;-76
2022/09/22 06:33:22;;;;;;;30.50;11.50;;;;;;;8.25;85.88;99381.23;88393;1279;23580;-76
2022/09/22 06:35:24;;;;;;;19.20;10.30;;;;;;;8.28;85.97;99380.61;88428;1276;22864;-74
2022/09/22 06:37:26;;;;;;;15.80;10.40;;;;;;;8.30;85.64;99378.95;88528;1276;22610;-75
2022/09/22 06:39:28;;;;;;;12.50;9.70;;;;;;;8.32;85.56;99376.77;88145;1281;22665;-76
2022/09/22 06:41:31;;;;;;;30.50;9.90;;;;;;;8.34;85.70;99377.05;88225;1278;22576;-76
2022/09/22 06:43:36;;;;;;;18.70;9.40;;;;;;;8.37;85.75;99376.09;88280;1276;22672;-76
2022/09/22 06:45:39;;;;;;;12.90;9.50;;;;;;;8.39;85.65;99371.84;88458;1276;24267;-75
2022/09/22 06:47:44;;;;;;;19.30;9.60;;;;;;;8.42;85.54;99376.66;88354;1278;22662;-75
2022/09/22 06:49:46;;;;;;;16.20;10.00;;;;;;;8.45;85.29;99375.17;88397;1279;23172;-77
2022/09/22 06:51:48;;;;;;;20.70;9.30;;;;;;;8.48;85.55;99376.14;88187;1279;22566;-75
2022/09/22 06:53:50;;;;;;;15.60;10.00;;;;;;;8.50;85.79;99380.26;88403;1276;22641;-77
2022/09/22 06:55:51;;;;;;;23.90;10.10;;;;;;;8.44;85.57;99366.45;88524;1276;25429;-76
2022/09/22 06:57:57;;;;;;;17.60;9.90;;;;;;;8.54;85.58;99376.83;88517;1276;22617;-77
2022/09/22 06:59:59;;;;;;;14.20;8.50;;;;;;;8.59;85.48;99378.92;88459;1276;25274;-76
2022/09/22 07:02:05;;;;;;;10.30;7.90;;;;;;;8.63;85.46;99378.94;88259;1279;22733;-75
2022/09/22 07:04:09;;;;;;;9.10;8.10;;;;;;;8.67;85.58;99386.02;88392;1279;22568;-75
2022/09/22 07:06:16;;;;;;;10.20;8.30;;;;;;;8.72;85.17;99384.79;88319;1276;25455;-76
2022/09/22 07:08:22;;;;;;;7.70;7.00;;;;;;;8.77;85.30;99386.36;88571;1278;22553;-76
2022/09/22 07:10:24;;;;;;;8.20;7.40;;;;;;;8.82;85.21;99388.98;88140;1278;25517;-76
2022/09/22 07:12:27;;;;;;;11.10;7.00;;;;;;;8.88;85.29;99392.31;88433;1276;24256;-75
2022/09/22 07:14:30;;;;;;;8.00;7.20;;;;;;;8.92;85.38;99391.46;88399;1277;22624;-75
2022/09/22 07:16:32;;;;;;;6.60;5.90;;;;;;;8.98;85.35;99398.78;88789;1279;22589;-76
2022/09/22 07:18:39;;;;;;;8.10;6.00;;;;;;;9.00;85.32;99394.16;88652;1276;22552;-75
2022/09/22 07:20:43;;;;;;;6.60;6.00;;;;;;;9.03;85.05;99393.00;88172;1279;22742;-76
2022/09/22 07:22:45;;;;;;;7.60;6.30;;;;;;;9.05;85.34;99391.90;88561;1276;22588;-76
2022/09/22 07:24:46;;;;;;;10.70;7.20;;;;;;;9.08;84.84;99392.13;88457;1279;22591;-75
2022/09/22 07:26:48;;;;;;;11.80;6.90;;;;;;;9.11;85.20;99392.56;88384;1276;22660;-75
2022/09/22 07:28:52;;;;;;;6.50;5.40;;;;;;;9.14;84.79;99394.21;88366;1279;23373;-75
2022/09/22 07:30:59;;;;;;;10.20;6.20;;;;;;;9.14;84.80;99396.83;88253;1279;25542;-75
2022/09/22 07:33:01;;;;;;;9.80;6.70;;;;;;;9.14;84.95;99393.14;88640;1277;25334;-75
2022/09/22 07:35:03;;;;;;;6.60;6.10;;;;;;;9.16;84.76;99391.50;88439;1276;23696;-75
2022/09/22 07:37:05;;;;;;;15.50;6.60;;;;;;;9.19;84.77;99392.98;88255;1280;23042;-76
2022/09/22 07:39:09;;;;;;;6.80;5.40;;;;;;;9.20;84.75;99392.77;88280;1279;25293;-74
2022/09/22 07:41:26;;;;;;;7.70;6.40;;;;;;;9.18;84.62;99395.46;88312;1276;25316;-76
2022/09/22 07:43:29;;;;;;;10.50;5.90;;;;;;;9.17;85.03;99389.54;88413;1277;22557;-75
2022/09/22 07:45:30;;;;;;;6.10;5.50;;;;;;;9.19;84.65;99392.08;88392;1279;23485;-76
2022/09/22 07:49:52;;;;;;;7.20;5.60;;;;;;;9.26;84.79;99389.56;88328;1277;22540;-76
2022/09/22 07:51:56;;;;;;;8.00;4.90;;;;;;;9.31;84.85;99387.28;88233;1278;22834;-76
2022/09/22 07:54:07;;;;;;;7.60;5.40;;;;;;;9.35;84.70;99385.20;88201;1279;22746;-75
2022/09/22 07:56:12;;;;;;;6.80;5.80;;;;;;;9.42;84.66;99384.06;88405;1276;23022;-75
2022/09/22 07:58:13;;;;;;;6.40;5.30;;;;;;;9.49;84.63;99389.27;88267;1278;23003;-75
2022/09/22 08:00:15;;;;;;;7.20;5.90;;;;;;;9.55;84.60;99388.67;88208;1279;23035;-75
2022/09/22 08:02:17;;;;;;;6.30;5.70;;;;;;;9.62;84.46;99391.05;88267;1276;22622;-75
2022/09/22 08:04:21;;;;;;;6.30;5.70;;;;;;;9.68;84.61;99390.48;88239;1278;22581;-75
2022/09/22 08:06:23;;;;;;;5.60;5.00;;;;;;;9.74;84.65;99393.23;88616;1276;22595;-75
2022/09/22 08:08:26;;;;;;;4.90;4.60;;;;;;;9.79;84.35;99396.20;88652;1276;25276;-76
2022/09/22 08:10:27;;;;;;;5.10;4.70;;;;;;;9.84;84.42;99398.14;88344;1278;22881;-75
2022/09/22 08:12:29;;;;;;;10.20;4.60;;;;;;;9.87;84.31;99399.59;88261;1279;22604;-74
2022/09/22 08:14:30;;;;;;;5.60;5.10;;;;;;;9.91;83.98;99399.94;88317;1279;22735;-75
2022/09/22 08:16:39;;;;;;;4.40;4.00;;;;;;;9.97;84.17;99398.85;88241;1279;22714;-74
2022/09/22 08:18:41;;;;;;;7.00;4.40;;;;;;;10.02;84.16;99398.48;88258;1279;24239;-75
2022/09/22 08:20:42;;;;;;;5.60;5.10;;;;;;;10.06;83.85;99398.86;88302;1279;22682;-75
2022/09/22 08:22:44;;;;;;;5.60;4.90;;;;;;;10.09;83.95;99397.15;88273;1276;24263;-75
2022/09/22 08:24:46;;;;;;;5.70;5.20;;;;;;;10.13;84.06;99396.84;88262;1279;22680;-72
2022/09/22 08:26:51;;;;;;;5.30;4.80;;;;;;;10.15;84.11;99396.20;88373;1279;22579;-75
2022/09/22 08:28:55;;;;;;;7.10;4.70;;;;;;;10.17;83.93;99400.16;88310;1276;26583;-76
2022/09/22 08:30:58;;;;;;;7.20;4.40;;;;;;;10.18;83.76;99407.84;88049;1279;281587;-74
2022/09/22 08:33:00;;;;;;;9.00;5.20;;;;;;;10.19;83.79;99405.20;88250;1279;22584;-74
2022/09/22 08:35:03;;;;;;;6.10;5.30;;;;;;;10.21;83.94;99402.84;88492;1276;22585;-75
2022/09/22 08:37:05;;;;;;;7.70;5.60;;;;;;;10.23;83.88;99399.23;88349;1278;22746;-75
2022/09/22 08:39:07;;;;;;;5.40;4.90;;;;;;;10.26;83.92;99396.68;88369;1276;24541;-75
2022/09/22 08:41:15;;;;;;;5.30;4.80;;;;;;;10.25;83.73;99398.11;88230;1279;22628;-75
2022/09/22 08:43:17;;;;;;;4.90;4.50;;;;;;;10.23;83.64;99394.30;88383;1276;22667;-76
2022/09/22 08:45:29;;;;;;;5.10;4.70;;;;;;;10.24;83.61;99394.63;88454;1278;24979;-76
2022/09/22 08:52:40;;;;;;;4.40;4.00;;;;;;;10.36;83.43;99394.36;88508;1276;22696;-75
2022/09/22 08:54:43;;;;;;;6.10;4.50;;;;;;;10.43;83.74;99397.23;88855;1276;22642;-76
2022/09/22 08:57:01;;;;;;;5.30;4.80;;;;;;;10.56;83.74;99395.64;88191;1278;25451;-76
2022/09/22 08:59:09;;;;;;;4.80;4.30;;;;;;;10.73;83.46;99388.60;88269;1278;23515;-76
2022/09/22 09:01:17;;;;;;;7.70;4.60;;;;;;;10.88;83.39;99385.15;88554;1276;22595;-75
2022/09/22 09:03:50;;;;;;;5.50;4.40;;;;;;;11.02;83.34;99382.80;88578;1278;22710;-76
2022/09/22 09:06:08;;;;;;;7.10;4.10;;;;;;;11.18;83.15;99380.86;87879;1284;22652;-74
2022/09/22 09:08:15;;;;;;;10.70;3.70;;;;;;;11.33;83.19;99378.27;87798;1285;23241;-75
2022/09/22 09:10:31;;;;;;;6.60;4.10;;;;;;;11.51;83.07;99372.75;87827;1284;22680;-77
2022/09/22 09:12:47;;;;;;;4.40;3.30;;;;;;;11.67;82.94;99369.53;87966;1284;23021;-76
2022/09/22 09:15:00;;;;;;;3.40;3.10;;;;;;;11.75;82.81;99368.27;87757;1284;23578;-75
2022/09/22 09:17:17;;;;;;;4.40;3.20;;;;;;;11.87;82.43;99365.41;87802;1284;24030;-74
2022/09/22 09:19:40;;;;;;;3.60;2.80;;;;;;;12.03;82.43;99363.11;87924;1284;23434;-78
2022/09/22 09:22:11;;;;;;;3.20;2.60;;;;;;;12.13;82.31;99364.60;87808;1284;22570;-75
2022/09/22 09:24:35;;;;;;;3.40;2.90;;;;;;;12.15;81.81;99362.93;87729;1286;22623;-75
2022/09/22 09:26:37;;;;;;;4.90;2.80;;;;;;;12.13;81.68;99367.75;87790;1285;25334;-76
2022/09/22 09:28:46;;;;;;;2.70;2.50;;;;;;;12.11;81.59;99367.66;87687;1284;24335;-75
2022/09/22 09:30:51;;;;;;;3.40;2.40;;;;;;;12.05;81.31;99365.12;87498;1287;27735;-76
2022/09/22 09:32:59;;;;;;;4.00;2.30;;;;;;;12.00;81.28;99363.80;87557;1287;25817;-75
2022/09/22 09:35:03;;;;;;;2.80;2.50;;;;;;;11.94;80.98;99370.76;87882;1285;24660;-77
2022/09/22 09:37:12;;;;;;;4.60;2.70;;;;;;;11.84;80.74;99367.16;87960;1285;26044;-75
2022/09/22 09:39:21;;;;;;;3.40;2.80;;;;;;;11.80;81.05;99365.75;88106;1284;22541;-75
2022/09/22 09:41:35;;;;;;;5.50;2.60;;;;;;;11.79;81.16;99368.65;88177;1284;22631;-75
2022/09/22 09:43:41;;;;;;;3.70;2.70;;;;;;;11.77;80.91;99368.38;88307;1279;23608;-75
2022/09/22 09:46:18;;;;;;;3.60;3.30;;;;;;;11.76;81.18;99370.86;88729;1278;22625;-75
2022/09/22 09:48:33;;;;;;;15.20;3.70;;;;;;;11.78;81.46;99372.02;88621;1278;24283;-75
2022/09/22 09:50:36;;;;;;;12.10;3.90;;;;;;;11.81;81.43;99371.88;88727;1278;22596;-75
2022/09/22 09:52:38;;;;;;;3.80;3.20;;;;;;;11.82;81.39;99373.07;88900;1276;22577;-76
2022/09/22 09:54:42;;;;;;;3.20;2.70;;;;;;;11.85;81.56;99373.98;88712;1278;22909;-76
2022/09/22 09:57:07;;;;;;;4.60;2.90;;;;;;;11.87;81.28;99374.41;88626;1281;22604;-75